Time;durP1;ratioP1;P1;durP2;ratioP2;P2;SDS_P1;SDS_P2;PMS_P1;PMS_P2;Temp;Humidity;BMP_temperature;BMP_pressure;BME280_temperature;BME280_humidity;BME280_pressure;Samples;Min_cycle;Max_cycle;Signal;HPM_P1;HPM_P2
2023/02/28 00:02:21;;;;;;;0.85;0.68;;;;;;;;;;4967901;28;20054;-64
2023/02/28 00:04:52;;;;;;;1.05;0.75;;;;;;;;;;4971152;28;20537;-65
2023/02/28 00:07:20;;;;;;;1.45;0.63;;;;;;;;;;4976151;28;20557;-64
2023/02/28 00:09:46;;;;;;;0.55;0.50;;;;;;;;;;4975979;28;20037;-66
2023/02/28 00:12:13;;;;;;;1.98;0.90;;;;;;;;;;4976042;28;20032;-64
2023/02/28 00:14:40;;;;;;;1.42;0.98;;;;;;;;;;4975838;28;20065;-64
2023/02/28 00:17:07;;;;;;;1.20;0.90;;;;;;;;;;4974936;28;20317;-64
2023/02/28 00:19:33;;;;;;;3.17;1.10;;;;;;;;;;4971071;28;20482;-64
2023/02/28 00:22:00;;;;;;;4.95;1.13;;;;;;;;;;4970759;28;20444;-64
2023/02/28 00:24:27;;;;;;;1.55;0.63;;;;;;;;;;4971148;28;20031;-64
2023/02/28 00:26:53;;;;;;;10.68;1.13;;;;;;;;;;4971026;28;20773;-65
2023/02/28 00:29:20;;;;;;;1.60;0.95;;;;;;;;;;4971995;28;20473;-64
2023/02/28 00:31:47;;;;;;;2.20;0.85;;;;;;;;;;4975598;28;20027;-65
2023/02/28 00:34:13;;;;;;;2.03;1.00;;;;;;;;;;4975469;28;20038;-65
2023/02/28 00:36:45;;;;;;;1.55;0.70;;;;;;;;;;4975466;28;20023;-65
2023/02/28 00:39:12;;;;;;;2.85;0.70;;;;;;;;;;4975159;28;20023;-64
2023/02/28 00:41:38;;;;;;;0.93;0.60;;;;;;;;;;4975580;28;20026;-64
2023/02/28 00:44:07;;;;;;;1.52;0.90;;;;;;;;;;4970653;28;20434;-65
2023/02/28 00:46:34;;;;;;;2.55;0.98;;;;;;;;;;4970739;28;20034;-64
2023/02/28 00:49:01;;;;;;;0.70;0.55;;;;;;;;;;4970546;28;20097;-64
2023/02/28 00:51:27;;;;;;;1.60;0.75;;;;;;;;;;4970499;28;20022;-64
2023/02/28 00:53:54;;;;;;;3.70;1.02;;;;;;;;;;4970830;28;20033;-64
2023/02/28 00:56:21;;;;;;;1.77;1.23;;;;;;;;;;4975303;28;20030;-65
2023/02/28 00:58:47;;;;;;;5.80;1.55;;;;;;;;;;4975831;28;20355;-64
2023/02/28 01:01:14;;;;;;;3.80;2.03;;;;;;;;;;4975155;28;20408;-65
2023/02/28 01:03:42;;;;;;;4.15;2.00;;;;;;;;;;4975228;28;20035;-64
2023/02/28 01:06:08;;;;;;;14.85;2.65;;;;;;;;;;4975045;28;20109;-65
2023/02/28 01:08:35;;;;;;;4.03;2.20;;;;;;;;;;4970640;28;20494;-65
2023/02/28 01:11:11;;;;;;;11.50;2.17;;;;;;;;;;4970371;28;20121;-64
2023/02/28 01:13:38;;;;;;;8.35;3.00;;;;;;;;;;4969783;28;20369;-65
2023/02/28 01:16:05;;;;;;;7.85;2.25;;;;;;;;;;4969791;28;20031;-65
2023/02/28 01:18:32;;;;;;;24.42;2.88;;;;;;;;;;4970251;28;20031;-64
2023/02/28 01:20:59;;;;;;;3.53;2.20;;;;;;;;;;4974912;28;20027;-64
2023/02/28 01:23:25;;;;;;;14.30;2.72;;;;;;;;;;4974672;28;20029;-64
2023/02/28 01:25:52;;;;;;;9.02;3.08;;;;;;;;;;4974760;28;20090;-64
2023/02/28 01:28:19;;;;;;;4.55;2.58;;;;;;;;;;4974642;28;20393;-64
2023/02/28 01:30:52;;;;;;;6.05;3.08;;;;;;;;;;4974292;28;20518;-65
2023/02/28 01:33:21;;;;;;;4.27;2.47;;;;;;;;;;4970493;28;20047;-64
2023/02/28 01:35:47;;;;;;;4.13;2.27;;;;;;;;;;4969879;28;20118;-64
2023/02/28 01:38:14;;;;;;;4.33;3.10;;;;;;;;;;4969746;28;20030;-64
2023/02/28 01:40:41;;;;;;;12.93;3.00;;;;;;;;;;4969949;28;20474;-64
2023/02/28 01:43:20;;;;;;;7.43;2.33;;;;;;;;;;4969728;28;20041;-64
2023/02/28 01:45:46;;;;;;;3.80;2.40;;;;;;;;;;4974340;28;20019;-65
2023/02/28 01:48:13;;;;;;;5.03;3.00;;;;;;;;;;4974307;28;20081;-64
2023/02/28 01:50:41;;;;;;;3.97;2.40;;;;;;;;;;4974246;28;20027;-64
2023/02/28 01:53:11;;;;;;;4.97;2.80;;;;;;;;;;4974343;28;20030;-64
2023/02/28 01:55:38;;;;;;;5.67;2.63;;;;;;;;;;4974093;28;20508;-65
2023/02/28 01:58:06;;;;;;;3.40;2.43;;;;;;;;;;4970529;28;20023;-65
2023/02/28 02:00:33;;;;;;;6.00;2.33;;;;;;;;;;4968979;28;20102;-64
2023/02/28 02:03:01;;;;;;;5.70;3.07;;;;;;;;;;4969327;28;20486;-64
2023/02/28 02:05:31;;;;;;;3.57;2.30;;;;;;;;;;4969367;28;20034;-64
2023/02/28 02:08:07;;;;;;;9.33;3.00;;;;;;;;;;4969241;28;20027;-64
2023/02/28 02:10:36;;;;;;;7.77;3.33;;;;;;;;;;4973649;28;20540;-64
2023/02/28 02:13:09;;;;;;;9.23;2.77;;;;;;;;;;4974026;28;20090;-64
2023/02/28 02:15:41;;;;;;;5.30;2.83;;;;;;;;;;4973874;28;20023;-64
2023/02/28 02:18:23;;;;;;;21.17;3.27;;;;;;;;;;4973803;28;20019;-64
2023/02/28 02:21:08;;;;;;;3.47;2.33;;;;;;;;;;4973871;28;20060;-64
2023/02/28 02:23:52;;;;;;;5.75;3.03;;;;;;;;;;4969052;28;20073;-64
2023/02/28 02:26:19;;;;;;;;;;;;;;;;;;4969539;28;20103;-64
2023/02/28 02:29:08;;;;;;;2.90;1.73;;;;;;;;;;4967943;28;20001;-64
2023/02/28 02:31:55;;;;;;;3.37;2.20;;;;;;;;;;4968937;28;20552;-64
2023/02/28 02:34:27;;;;;;;4.30;2.67;;;;;;;;;;4971188;28;20378;-64
2023/02/28 02:37:15;;;;;;;4.50;2.57;;;;;;;;;;4973753;28;20027;-64
2023/02/28 02:39:48;;;;;;;9.87;3.33;;;;;;;;;;4973628;28;20371;-64
2023/02/28 02:42:19;;;;;;;3.87;2.17;;;;;;;;;;4973306;28;20026;-64
2023/02/28 02:44:53;;;;;;;3.37;2.23;;;;;;;;;;4973546;28;20023;-64
2023/02/28 02:47:21;;;;;;;6.22;3.10;;;;;;;;;;4969549;28;20034;-64
2023/02/28 02:49:50;;;;;;;5.87;3.20;;;;;;;;;;4966984;28;20063;-64
2023/02/28 02:52:21;;;;;;;4.77;3.23;;;;;;;;;;4967991;28;20019;-65
2023/02/28 02:54:49;;;;;;;5.50;3.10;;;;;;;;;;4967956;28;20470;-64
2023/02/28 02:57:39;;;;;;;4.67;3.13;;;;;;;;;;4971014;28;20085;-64
2023/02/28 03:00:09;;;;;;;3.87;2.57;;;;;;;;;;4965327;28;20389;-64
2023/02/28 03:02:37;;;;;;;6.33;2.70;;;;;;;;;;4973220;28;20027;-65
2023/02/28 03:05:07;;;;;;;7.30;3.23;;;;;;;;;;4973342;28;20102;-64
2023/02/28 03:07:34;;;;;;;3.93;2.83;;;;;;;;;;4973096;28;20035;-64
2023/02/28 03:10:01;;;;;;;3.57;2.47;;;;;;;;;;4968916;28;20037;-65
2023/02/28 03:12:39;;;;;;;6.63;3.23;;;;;;;;;;4968067;28;20019;-65
2023/02/28 03:15:28;;;;;;;5.93;3.13;;;;;;;;;;4967896;28;20114;-65
2023/02/28 03:18:15;;;;;;;7.63;3.43;;;;;;;;;;4967742;28;20041;-64
2023/02/28 03:20:48;;;;;;;5.40;3.10;;;;;;;;;;4972701;28;20510;-64
2023/02/28 03:23:20;;;;;;;9.17;3.27;;;;;;;;;;4973260;28;20471;-64
2023/02/28 03:25:59;;;;;;;5.23;2.37;;;;;;;;;;4973071;28;20106;-64
2023/02/28 03:28:31;;;;;;;7.73;2.13;;;;;;;;;;4973009;28;20039;-64
2023/02/28 03:31:10;;;;;;;3.03;1.60;;;;;;;;;;4971698;28;20027;-65
2023/02/28 03:33:39;;;;;;;1.87;0.97;;;;;;;;;;4967669;28;20371;-64
2023/02/28 03:36:12;;;;;;;1.80;1.40;;;;;;;;;;4967660;28;20026;-64
2023/02/28 03:39:05;;;;;;;1.40;1.10;;;;;;;;;;4967861;28;20023;-64
2023/02/28 03:41:49;;;;;;;2.53;1.03;;;;;;;;;;4970673;28;20031;-64
2023/02/28 03:44:22;;;;;;;2.33;0.90;;;;;;;;;;4976767;28;20022;-64
2023/02/28 03:47:15;;;;;;;2.33;1.37;;;;;;;;;;4976587;28;20125;-64
2023/02/28 03:49:45;;;;;;;2.47;1.33;;;;;;;;;;4954056;28;20051;-64
2023/02/28 03:52:12;;;;;;;8.90;1.27;;;;;;;;;;4976815;28;20027;-64
2023/02/28 03:54:43;;;;;;;1.13;0.87;;;;;;;;;;4972416;28;20027;-65
2023/02/28 03:57:17;;;;;;;1.83;0.80;;;;;;;;;;4971082;28;20518;-61
2023/02/28 04:00:10;;;;;;;2.92;1.17;;;;;;;;;;4969642;28;20038;-63
2023/02/28 04:02:37;;;;;;;3.00;1.00;;;;;;;;;;4939627;28;20093;-64
2023/02/28 04:05:04;;;;;;;1.90;0.93;;;;;;;;;;4975456;28;20482;-62
2023/02/28 04:07:34;;;;;;;1.57;0.73;;;;;;;;;;4973692;28;20039;-62
2023/02/28 04:10:00;;;;;;;1.53;0.50;;;;;;;;;;4976220;28;20069;-63
2023/02/28 04:12:27;;;;;;;0.87;0.60;;;;;;;;;;4975851;28;20583;-62
2023/02/28 04:14:56;;;;;;;1.47;0.73;;;;;;;;;;4975762;28;20035;-63
2023/02/28 04:17:23;;;;;;;1.67;1.10;;;;;;;;;;4969332;28;20035;-63
2023/02/28 04:19:50;;;;;;;0.90;0.77;;;;;;;;;;4970468;28;20062;-63
2023/02/28 04:22:17;;;;;;;0.80;0.60;;;;;;;;;;4969646;28;20445;-63
2023/02/28 04:24:44;;;;;;;0.43;0.37;;;;;;;;;;4970193;28;20059;-63
2023/02/28 04:27:11;;;;;;;0.87;0.50;;;;;;;;;;4974300;28;20049;-62
2023/02/28 04:29:37;;;;;;;1.40;1.00;;;;;;;;;;4974604;28;20105;-62
2023/02/28 04:32:04;;;;;;;3.83;1.43;;;;;;;;;;4974981;28;20038;-63
2023/02/28 04:34:32;;;;;;;2.17;0.83;;;;;;;;;;4975340;28;20045;-62
2023/02/28 04:37:00;;;;;;;1.00;0.70;;;;;;;;;;4975138;28;20033;-62
2023/02/28 04:39:26;;;;;;;1.00;0.67;;;;;;;;;;4954220;28;20023;-62
2023/02/28 04:41:53;;;;;;;1.10;0.70;;;;;;;;;;4954847;28;20058;-62
2023/02/28 04:44:20;;;;;;;1.83;1.23;;;;;;;;;;4970286;28;20041;-62
2023/02/28 04:46:48;;;;;;;0.87;0.53;;;;;;;;;;4970125;28;20429;-62
2023/02/28 04:49:15;;;;;;;0.83;0.53;;;;;;;;;;4973236;28;20097;-62
2023/02/28 04:51:43;;;;;;;0.67;0.50;;;;;;;;;;4974337;28;20094;-62
2023/02/28 04:54:09;;;;;;;1.20;0.80;;;;;;;;;;4970402;28;20550;-62
2023/02/28 04:56:36;;;;;;;1.20;0.90;;;;;;;;;;4956063;28;20031;-62
2023/02/28 04:59:03;;;;;;;2.10;1.07;;;;;;;;;;4955574;28;20031;-62
2023/02/28 05:01:34;;;;;;;0.30;0.30;;;;;;;;;;4952152;28;20438;-62
2023/02/28 05:04:02;;;;;;;1.67;0.83;;;;;;;;;;4950683;28;20035;-62
2023/02/28 05:06:29;;;;;;;2.67;1.00;;;;;;;;;;4950528;28;20028;-62
2023/02/28 05:08:57;;;;;;;1.00;0.57;;;;;;;;;;4950432;28;20095;-62
2023/02/28 05:11:34;;;;;;;2.67;0.30;;;;;;;;;;4953525;28;20041;-61
2023/02/28 05:14:10;;;;;;;1.23;1.00;;;;;;;;;;4958097;28;20023;-62
2023/02/28 05:16:37;;;;;;;0.87;0.57;;;;;;;;;;4974716;28;20019;-62
2023/02/28 05:19:03;;;;;;;1.87;0.90;;;;;;;;;;4974793;28;20497;-62
2023/02/28 05:21:31;;;;;;;5.40;1.20;;;;;;;;;;4974674;28;20060;-62
2023/02/28 05:23:59;;;;;;;1.80;1.00;;;;;;;;;;4970375;28;20474;-62
2023/02/28 05:26:26;;;;;;;2.00;0.90;;;;;;;;;;4969192;28;20030;-62
2023/02/28 05:28:53;;;;;;;2.67;1.07;;;;;;;;;;4968799;28;20042;-62
2023/02/28 05:31:20;;;;;;;0.60;0.53;;;;;;;;;;4969399;28;20035;-62
2023/02/28 05:33:47;;;;;;;1.27;0.90;;;;;;;;;;4971958;28;20348;-62
2023/02/28 05:36:13;;;;;;;1.37;0.87;;;;;;;;;;4974473;28;20039;-62
2023/02/28 05:38:40;;;;;;;1.47;1.20;;;;;;;;;;4974369;28;20035;-62
2023/02/28 05:41:08;;;;;;;1.23;0.53;;;;;;;;;;4974553;28;20042;-63
2023/02/28 05:43:35;;;;;;;1.70;1.03;;;;;;;;;;4973650;28;20547;-63
2023/02/28 05:46:11;;;;;;;1.13;0.70;;;;;;;;;;4971022;28;20026;-63
2023/02/28 05:48:38;;;;;;;6.47;1.50;;;;;;;;;;4968706;28;20077;-63
2023/02/28 05:51:06;;;;;;;0.93;0.57;;;;;;;;;;4968481;28;20022;-62
2023/02/28 05:53:33;;;;;;;0.73;0.67;;;;;;;;;;4968702;28;20031;-62
2023/02/28 05:56:00;;;;;;;0.87;0.53;;;;;;;;;;4971965;28;20023;-62
2023/02/28 05:58:30;;;;;;;3.33;1.00;;;;;;;;;;4973531;28;20500;-63
2023/02/28 06:01:00;;;;;;;0.73;0.63;;;;;;;;;;4973930;28;20037;-63
2023/02/28 06:03:27;;;;;;;0.27;0.27;;;;;;;;;;4973923;28;20027;-63
2023/02/28 06:05:54;;;;;;;1.10;0.63;;;;;;;;;;4973979;28;20040;-63
2023/02/28 06:08:21;;;;;;;1.60;0.93;;;;;;;;;;4970320;28;20050;-62
2023/02/28 06:10:48;;;;;;;0.97;0.53;;;;;;;;;;4968480;28;20035;-62
2023/02/28 06:13:15;;;;;;;0.53;0.40;;;;;;;;;;4967947;28;20031;-63
2023/02/28 06:15:41;;;;;;;1.77;0.97;;;;;;;;;;4968372;28;20030;-63
2023/02/28 06:18:08;;;;;;;1.70;0.57;;;;;;;;;;4971207;28;20634;-62
2023/02/28 06:20:36;;;;;;;0.60;0.50;;;;;;;;;;4973342;28;20045;-63
2023/02/28 06:23:02;;;;;;;0.67;0.53;;;;;;;;;;4973684;28;20035;-62
2023/02/28 06:25:29;;;;;;;1.17;0.80;;;;;;;;;;4973685;28;20074;-63
2023/02/28 06:27:56;;;;;;;1.50;0.50;;;;;;;;;;4973249;28;20042;-63
2023/02/28 06:30:25;;;;;;;1.10;0.57;;;;;;;;;;4970510;28;20019;-63
2023/02/28 06:32:52;;;;;;;1.13;0.73;;;;;;;;;;4968066;28;20042;-63
2023/02/28 06:35:19;;;;;;;0.97;0.77;;;;;;;;;;4967753;28;20035;-63
2023/02/28 06:37:46;;;;;;;0.97;0.57;;;;;;;;;;4967935;28;20129;-62
2023/02/28 06:40:14;;;;;;;0.67;0.50;;;;;;;;;;4970530;28;20023;-62
2023/02/28 06:42:41;;;;;;;2.50;1.27;;;;;;;;;;4973448;28;20057;-63
2023/02/28 06:45:08;;;;;;;0.83;0.70;;;;;;;;;;4973734;28;20027;-62
2023/02/28 06:47:36;;;;;;;1.37;0.90;;;;;;;;;;4972881;28;20493;-63
2023/02/28 06:50:03;;;;;;;1.13;0.80;;;;;;;;;;4973222;28;20065;-62
2023/02/28 06:52:29;;;;;;;1.80;0.70;;;;;;;;;;4970754;28;20273;-62
2023/02/28 06:55:02;;;;;;;1.40;0.70;;;;;;;;;;4968094;28;20022;-62
2023/02/28 06:57:33;;;;;;;1.87;0.97;;;;;;;;;;4968179;28;20039;-62
2023/02/28 07:00:01;;;;;;;1.07;0.80;;;;;;;;;;4967441;28;20114;-62
2023/02/28 07:02:28;;;;;;;1.30;1.00;;;;;;;;;;4957480;28;20070;-63
2023/02/28 07:04:55;;;;;;;1.30;0.83;;;;;;;;;;4969548;28;20035;-62
2023/02/28 07:07:22;;;;;;;2.90;0.70;;;;;;;;;;4972689;28;20118;-63
2023/02/28 07:09:48;;;;;;;0.97;0.77;;;;;;;;;;4973133;28;20046;-62
2023/02/28 07:12:15;;;;;;;0.60;0.50;;;;;;;;;;4973007;28;20053;-62
2023/02/28 07:14:42;;;;;;;0.37;0.37;;;;;;;;;;4972618;28;20507;-63
2023/02/28 07:17:10;;;;;;;1.40;0.80;;;;;;;;;;4971629;28;20034;-62
2023/02/28 07:19:37;;;;;;;1.17;0.90;;;;;;;;;;4971315;28;20041;-63
2023/02/28 07:22:04;;;;;;;0.67;0.67;;;;;;;;;;4971733;28;20115;-63
2023/02/28 07:24:30;;;;;;;0.50;0.50;;;;;;;;;;4973067;28;20497;-62
2023/02/28 07:26:57;;;;;;;1.10;0.70;;;;;;;;;;4976770;28;20031;-62
2023/02/28 07:29:24;;;;;;;1.33;0.87;;;;;;;;;;4976460;28;20047;-62
2023/02/28 07:31:52;;;;;;;1.17;0.77;;;;;;;;;;4976974;28;20106;-62
2023/02/28 07:34:20;;;;;;;0.47;0.47;;;;;;;;;;4976230;28;20031;-63
2023/02/28 07:36:46;;;;;;;2.77;0.87;;;;;;;;;;4966040;28;20031;-63
2023/02/28 07:39:13;;;;;;;0.93;0.70;;;;;;;;;;4965732;28;20165;-62
2023/02/28 07:41:43;;;;;;;1.40;0.70;;;;;;;;;;4970897;28;20034;-63
2023/02/28 07:44:13;;;;;;;0.87;0.67;;;;;;;;;;4971273;28;20039;-63
2023/02/28 07:46:40;;;;;;;0.60;0.50;;;;;;;;;;4972372;28;20031;-62
2023/02/28 07:49:06;;;;;;;0.87;0.60;;;;;;;;;;4976133;28;20081;-62
2023/02/28 07:51:33;;;;;;;1.13;0.80;;;;;;;;;;4976104;28;20031;-63
2023/02/28 07:54:00;;;;;;;1.70;0.80;;;;;;;;;;4976615;28;20110;-62
2023/02/28 07:56:27;;;;;;;2.37;1.23;;;;;;;;;;4976159;28;20545;-62
2023/02/28 07:58:53;;;;;;;1.17;0.83;;;;;;;;;;4974942;28;20111;-62
2023/02/28 08:01:20;;;;;;;1.63;0.97;;;;;;;;;;4970765;28;20491;-63
2023/02/28 08:03:47;;;;;;;1.50;0.93;;;;;;;;;;4970427;28;20122;-63
2023/02/28 08:06:21;;;;;;;4.27;1.60;;;;;;;;;;4971059;28;20378;-63
2023/02/28 08:08:48;;;;;;;1.02;0.82;;;;;;;;;;4971639;28;20070;-63
2023/02/28 08:11:15;;;;;;;1.70;0.60;;;;;;;;;;4976540;28;20432;-62
2023/02/28 08:13:43;;;;;;;1.60;0.70;;;;;;;;;;4975902;28;20584;-62
2023/02/28 08:16:10;;;;;;;4.37;1.10;;;;;;;;;;4975447;28;20062;-62
2023/02/28 08:18:37;;;;;;;1.07;0.67;;;;;;;;;;4975879;28;20034;-62
2023/02/28 08:21:10;;;;;;;0.87;0.73;;;;;;;;;;4974335;28;20441;-62
2023/02/28 08:23:37;;;;;;;0.93;0.60;;;;;;;;;;4969971;28;20117;-63
2023/02/28 08:26:04;;;;;;;5.60;0.90;;;;;;;;;;4970617;28;20470;-63
2023/02/28 08:28:31;;;;;;;1.07;0.67;;;;;;;;;;4970187;28;20042;-62
2023/02/28 08:30:57;;;;;;;0.77;0.67;;;;;;;;;;4970870;28;20027;-63
2023/02/28 08:33:25;;;;;;;1.70;1.00;;;;;;;;;;4975093;28;20054;-62
2023/02/28 08:35:55;;;;;;;1.70;0.97;;;;;;;;;;4975615;28;20347;-62
2023/02/28 08:38:23;;;;;;;1.17;0.83;;;;;;;;;;4974895;28;20027;-63
2023/02/28 08:40:49;;;;;;;0.50;0.50;;;;;;;;;;4975662;28;20089;-62
2023/02/28 08:43:16;;;;;;;2.23;0.97;;;;;;;;;;4974732;28;20077;-62
2023/02/28 08:45:43;;;;;;;6.40;1.33;;;;;;;;;;4970408;28;20031;-62
2023/02/28 08:48:10;;;;;;;1.43;1.10;;;;;;;;;;4970097;28;20074;-62
2023/02/28 08:50:36;;;;;;;1.60;1.07;;;;;;;;;;4969477;28;20054;-62
2023/02/28 08:53:03;;;;;;;1.90;1.20;;;;;;;;;;4970233;28;20359;-63
2023/02/28 08:55:30;;;;;;;0.70;0.50;;;;;;;;;;4975037;28;20031;-63
2023/02/28 08:57:58;;;;;;;0.80;0.80;;;;;;;;;;4975498;28;20023;-62
2023/02/28 09:00:24;;;;;;;1.77;1.10;;;;;;;;;;4975011;28;20161;-62
2023/02/28 09:02:51;;;;;;;2.53;1.30;;;;;;;;;;4975163;28;20030;-63
2023/02/28 09:05:18;;;;;;;1.93;1.10;;;;;;;;;;4974647;28;20027;-62
2023/02/28 09:07:44;;;;;;;1.00;0.77;;;;;;;;;;4969565;28;20105;-62
2023/02/28 09:10:12;;;;;;;1.13;0.93;;;;;;;;;;4969269;28;20034;-62
2023/02/28 09:12:39;;;;;;;2.07;1.23;;;;;;;;;;4969409;28;20030;-62
2023/02/28 09:15:06;;;;;;;0.90;0.70;;;;;;;;;;4969267;28;20039;-62
2023/02/28 09:17:32;;;;;;;1.63;1.10;;;;;;;;;;4955328;28;20509;-62
2023/02/28 09:19:59;;;;;;;1.40;0.97;;;;;;;;;;4970544;28;20046;-62
2023/02/28 09:22:26;;;;;;;0.50;0.50;;;;;;;;;;4974798;28;20101;-62
2023/02/28 09:24:52;;;;;;;2.03;1.20;;;;;;;;;;4974075;28;20022;-62
2023/02/28 09:27:19;;;;;;;1.50;0.80;;;;;;;;;;4975088;28;20034;-62
2023/02/28 09:29:46;;;;;;;0.43;0.43;;;;;;;;;;4968884;28;20094;-62
2023/02/28 09:32:12;;;;;;;1.30;0.90;;;;;;;;;;4969597;28;20014;-63
2023/02/28 09:34:39;;;;;;;1.77;0.90;;;;;;;;;;4968988;28;20019;-62
2023/02/28 09:37:06;;;;;;;0.40;0.40;;;;;;;;;;4968824;28;20093;-62
2023/02/28 09:39:33;;;;;;;10.67;1.47;;;;;;;;;;4972965;28;20035;-62
2023/02/28 09:41:59;;;;;;;1.43;0.90;;;;;;;;;;4974387;28;20026;-62
2023/02/28 09:44:32;;;;;;;2.23;1.20;;;;;;;;;;4974352;28;20065;-62
2023/02/28 09:47:02;;;;;;;0.70;0.70;;;;;;;;;;4974295;28;20446;-62
2023/02/28 09:49:38;;;;;;;4.93;1.77;;;;;;;;;;4974197;28;20561;-62
2023/02/28 09:52:11;;;;;;;1.40;1.07;;;;;;;;;;4969085;28;20110;-63
2023/02/28 09:54:38;;;;;;;2.03;0.93;;;;;;;;;;4968548;28;20027;-62
2023/02/28 09:57:15;;;;;;;2.57;1.20;;;;;;;;;;4968325;28;20596;-63
2023/02/28 09:59:51;;;;;;;1.97;1.30;;;;;;;;;;4968619;28;20054;-62
2023/02/28 10:02:36;;;;;;;0.73;0.53;;;;;;;;;;4973620;28;20034;-62
2023/02/28 10:05:16;;;;;;;4.38;1.20;;;;;;;;;;4959245;28;20030;-63
2023/02/28 10:07:58;;;;;;;1.17;0.50;;;;;;;;;;4973949;28;20051;-62
2023/02/28 10:10:28;;;;;;;1.50;1.00;;;;;;;;;;4973690;28;20035;-62
2023/02/28 10:12:56;;;;;;;0.90;0.80;;;;;;;;;;4972337;28;20045;-62
2023/02/28 10:15:26;;;;;;;3.60;1.10;;;;;;;;;;4967695;28;20088;-62
2023/02/28 10:17:56;;;;;;;1.17;1.00;;;;;;;;;;4968491;28;20038;-62
2023/02/28 10:20:29;;;;;;;1.17;0.80;;;;;;;;;;4968289;28;20035;-62
2023/02/28 10:23:11;;;;;;;1.70;0.83;;;;;;;;;;4969704;28;20478;-62
2023/02/28 10:25:38;;;;;;;1.47;1.07;;;;;;;;;;4973240;28;20031;-62
2023/02/28 10:28:08;;;;;;;1.50;1.13;;;;;;;;;;4973453;28;20038;-62
2023/02/28 10:30:36;;;;;;;0.67;0.60;;;;;;;;;;4973171;28;20528;-62
2023/02/28 10:33:02;;;;;;;0.77;0.57;;;;;;;;;;4973723;28;20022;-62
2023/02/28 10:35:29;;;;;;;1.80;1.30;;;;;;;;;;4970795;28;20472;-62
2023/02/28 10:38:00;;;;;;;1.37;0.90;;;;;;;;;;4968531;28;20031;-62
2023/02/28 10:40:28;;;;;;;2.10;1.07;;;;;;;;;;4967352;28;20054;-62
2023/02/28 10:43:02;;;;;;;0.30;0.30;;;;;;;;;;4968621;28;20382;-62
2023/02/28 10:45:31;;;;;;;1.80;1.10;;;;;;;;;;4969963;28;20272;-62
2023/02/28 10:48:04;;;;;;;0.90;0.60;;;;;;;;;;4973342;28;20031;-62
2023/02/28 10:50:30;;;;;;;1.13;0.87;;;;;;;;;;4972622;28;20027;-62
2023/02/28 10:53:08;;;;;;;2.30;1.23;;;;;;;;;;4973134;28;20261;-62
2023/02/28 10:55:35;;;;;;;1.73;1.10;;;;;;;;;;4973245;28;20328;-62
2023/02/28 10:58:01;;;;;;;2.23;1.40;;;;;;;;;;4970120;28;20752;-62
2023/02/28 11:00:33;;;;;;;2.37;1.27;;;;;;;;;;4967673;28;20755;-62
2023/02/28 11:03:00;;;;;;;2.47;0.90;;;;;;;;;;4968031;28;20257;-62
2023/02/28 11:05:29;;;;;;;1.27;0.83;;;;;;;;;;4967406;28;20273;-62
2023/02/28 11:08:01;;;;;;;0.60;0.60;;;;;;;;;;4970328;28;20272;-63
2023/02/28 11:10:34;;;;;;;0.40;0.40;;;;;;;;;;4972872;28;20886;-62
2023/02/28 11:13:02;;;;;;;1.27;0.97;;;;;;;;;;4973051;28;20770;-62
2023/02/28 11:15:31;;;;;;;0.80;0.70;;;;;;;;;;4973119;28;20261;-62
2023/02/28 11:18:17;;;;;;;1.30;0.90;;;;;;;;;;4972988;28;20312;-62
2023/02/28 11:20:49;;;;;;;1.47;0.70;;;;;;;;;;4968931;28;20303;-62
2023/02/28 11:23:17;;;;;;;1.80;0.67;;;;;;;;;;4967833;28;20264;-62
2023/02/28 11:25:48;;;;;;;0.53;0.53;;;;;;;;;;4967442;28;20264;-62
2023/02/28 11:28:35;;;;;;;1.67;0.97;;;;;;;;;;4966897;28;20640;-62
2023/02/28 11:31:04;;;;;;;1.33;0.70;;;;;;;;;;4970624;28;20264;-62
2023/02/28 11:33:50;;;;;;;1.90;1.10;;;;;;;;;;4973029;28;20605;-62
2023/02/28 11:36:24;;;;;;;0.88;0.80;;;;;;;;;;4972577;28;20317;-63
2023/02/28 11:38:51;;;;;;;2.45;1.17;;;;;;;;;;4972990;28;20026;-62
2023/02/28 11:41:23;;;;;;;1.10;0.97;;;;;;;;;;4972508;28;20027;-62
2023/02/28 11:43:53;;;;;;;1.20;0.93;;;;;;;;;;4967508;28;20292;-62
2023/02/28 11:46:21;;;;;;;1.20;0.90;;;;;;;;;;4967769;28;20326;-62
2023/02/28 11:49:05;;;;;;;1.93;1.30;;;;;;;;;;4967013;28;20293;-62
2023/02/28 11:51:36;;;;;;;5.80;2.00;;;;;;;;;;4967671;28;20295;-62
2023/02/28 11:54:25;;;;;;;1.50;1.03;;;;;;;;;;4972701;28;20264;-62
2023/02/28 11:57:01;;;;;;;2.77;1.70;;;;;;;;;;4951056;28;20272;-62
2023/02/28 11:59:27;;;;;;;;;;;;;;;;;;4972905;28;20280;-62
2023/02/28 12:01:53;;;;;;;8.40;2.23;;;;;;;;;;4976107;28;19965;-62
2023/02/28 12:04:20;;;;;;;2.07;1.47;;;;;;;;;;4974259;28;20301;-62
2023/02/28 12:06:53;;;;;;;3.90;2.00;;;;;;;;;;4970913;28;20264;-62
2023/02/28 12:09:41;;;;;;;2.40;1.53;;;;;;;;;;4970230;28;20361;-62
2023/02/28 12:12:10;;;;;;;2.33;1.80;;;;;;;;;;4970676;28;20264;-62
2023/02/28 12:14:55;;;;;;;4.40;1.93;;;;;;;;;;4972897;28;20343;-61
2023/02/28 12:17:28;;;;;;;2.55;1.55;;;;;;;;;;4975977;28;20256;-63
2023/02/28 12:20:13;;;;;;;2.10;1.40;;;;;;;;;;4975804;28;20038;-62
2023/02/28 12:22:50;;;;;;;2.88;1.73;;;;;;;;;;4975901;28;20265;-61
2023/02/28 12:25:32;;;;;;;2.27;1.23;;;;;;;;;;4960342;28;20110;-61
2023/02/28 12:27:58;;;;;;;1.50;1.23;;;;;;;;;;4970216;28;20376;-62
2023/02/28 12:30:27;;;;;;;0.90;0.77;;;;;;;;;;4970545;28;20265;-61
2023/02/28 12:33:05;;;;;;;2.37;1.57;;;;;;;;;;4970426;28;20261;-61
2023/02/28 12:35:37;;;;;;;2.17;1.13;;;;;;;;;;4969878;28;20269;-61
2023/02/28 12:38:24;;;;;;;1.30;1.17;;;;;;;;;;4975478;28;20620;-61
2023/02/28 12:40:50;;;;;;;1.13;1.00;;;;;;;;;;4956469;28;20261;-62
2023/02/28 12:43:18;;;;;;;4.10;1.27;;;;;;;;;;4971025;28;20668;-61
2023/02/28 12:45:52;;;;;;;1.23;0.97;;;;;;;;;;4975272;28;20249;-62
2023/02/28 12:48:42;;;;;;;1.37;0.97;;;;;;;;;;4974710;28;20722;-62
2023/02/28 12:51:09;;;;;;;2.17;1.33;;;;;;;;;;4962268;28;20776;-64
2023/02/28 12:53:39;;;;;;;2.43;1.63;;;;;;;;;;4969886;28;20283;-62
2023/02/28 12:56:14;;;;;;;2.90;1.23;;;;;;;;;;4970231;28;20312;-63
2023/02/28 12:58:44;;;;;;;3.28;1.50;;;;;;;;;;4970608;28;20265;-62
2023/02/28 13:01:10;;;;;;;8.77;1.73;;;;;;;;;;4975032;28;20035;-63
2023/02/28 13:03:43;;;;;;;7.53;1.00;;;;;;;;;;4974955;28;20275;-62
2023/02/28 13:06:18;;;;;;;1.70;1.07;;;;;;;;;;4974975;28;20685;-62
2023/02/28 13:09:08;;;;;;;3.47;1.83;;;;;;;;;;4974754;28;20368;-62
2023/02/28 13:11:45;;;;;;;0.70;0.67;;;;;;;;;;4963737;28;20343;-62
2023/02/28 13:14:30;;;;;;;1.70;1.13;;;;;;;;;;4969157;28;20359;-62
2023/02/28 13:16:57;;;;;;;;;;;;;;;;;;4969892;28;20778;-60
2023/02/28 13:19:26;;;;;;;1.77;1.30;;;;;;;;;;4969161;28;19914;-60
2023/02/28 13:21:53;;;;;;;0.87;0.77;;;;;;;;;;4972253;28;20280;-61
2023/02/28 13:24:35;;;;;;;2.93;1.70;;;;;;;;;;4974351;28;20275;-60
2023/02/28 13:27:02;;;;;;;3.93;1.67;;;;;;;;;;4974659;28;20296;-61
2023/02/28 13:29:29;;;;;;;1.87;1.47;;;;;;;;;;4974433;28;20292;-61
2023/02/28 13:32:05;;;;;;;8.43;1.53;;;;;;;;;;4974474;28;20261;-61
2023/02/28 13:34:32;;;;;;;3.03;1.57;;;;;;;;;;4969724;28;20320;-61
2023/02/28 13:37:17;;;;;;;10.27;3.17;;;;;;;;;;4969004;28;20296;-62
2023/02/28 13:39:44;;;;;;;8.25;3.47;;;;;;;;;;4968827;28;20265;-61
2023/02/28 13:42:24;;;;;;;13.87;2.53;;;;;;;;;;4968872;28;20027;-62
2023/02/28 13:45:11;;;;;;;7.60;3.10;;;;;;;;;;4967188;28;20257;-61
2023/02/28 13:47:37;;;;;;;18.77;3.83;;;;;;;;;;4945167;28;20771;-62
2023/02/28 13:50:23;;;;;;;17.87;4.47;;;;;;;;;;4954933;28;20799;-62
2023/02/28 13:52:56;;;;;;;65.43;6.22;;;;;;;;;;4954819;28;20669;-62
2023/02/28 13:55:45;;;;;;;8.70;2.97;;;;;;;;;;4960186;28;20030;-62
2023/02/28 13:58:24;;;;;;;7.70;2.90;;;;;;;;;;4959933;28;20748;-62
2023/02/28 14:00:54;;;;;;;19.83;4.17;;;;;;;;;;4968380;28;20022;-62
2023/02/28 14:03:23;;;;;;;10.27;2.53;;;;;;;;;;4968395;28;20093;-62
2023/02/28 14:06:08;;;;;;;15.97;3.50;;;;;;;;;;4970376;28;20541;-62
2023/02/28 14:08:35;;;;;;;;;;;;;;;;;;4973240;28;20027;-62
2023/02/28 14:11:10;;;;;;;5.00;2.10;;;;;;;;;;4973814;28;19914;-62
2023/02/28 14:13:39;;;;;;;5.00;1.87;;;;;;;;;;4972831;28;20027;-62
2023/02/28 14:16:07;;;;;;;3.57;2.20;;;;;;;;;;4973044;28;20047;-62
2023/02/28 14:18:38;;;;;;;3.57;2.20;;;;;;;;;;4970303;28;20487;-62
2023/02/28 14:21:28;;;;;;;4.33;2.37;;;;;;;;;;4968118;28;20055;-62
2023/02/28 14:23:58;;;;;;;2.27;1.03;;;;;;;;;;4967936;28;20362;-62
2023/02/28 14:26:25;;;;;;;11.40;2.70;;;;;;;;;;4968339;28;20089;-62
2023/02/28 14:29:09;;;;;;;8.37;2.23;;;;;;;;;;4971373;28;20043;-62
2023/02/28 14:31:56;;;;;;;9.60;3.20;;;;;;;;;;4973011;28;20516;-62
2023/02/28 14:34:26;;;;;;;26.40;2.47;;;;;;;;;;4963086;28;20043;-62
2023/02/28 14:36:54;;;;;;;9.10;3.03;;;;;;;;;;4973531;28;20030;-62
2023/02/28 14:39:23;;;;;;;7.47;3.10;;;;;;;;;;4973207;28;20437;-62
2023/02/28 14:41:49;;;;;;;4.47;2.07;;;;;;;;;;4967826;28;20027;-62
2023/02/28 14:44:23;;;;;;;4.70;2.30;;;;;;;;;;4967729;28;20041;-62
2023/02/28 14:46:51;;;;;;;2.70;1.70;;;;;;;;;;4968049;28;20023;-62
2023/02/28 14:49:24;;;;;;;7.13;2.87;;;;;;;;;;4967124;28;20030;-63
2023/02/28 14:51:51;;;;;;;3.37;2.10;;;;;;;;;;4973456;28;20470;-62
2023/02/28 14:54:23;;;;;;;4.20;2.90;;;;;;;;;;4973223;28;20046;-62
2023/02/28 14:56:50;;;;;;;5.87;2.43;;;;;;;;;;4973484;28;20092;-63
2023/02/28 14:59:36;;;;;;;6.13;2.63;;;;;;;;;;4973023;28;20027;-63
2023/02/28 15:02:23;;;;;;;13.10;4.27;;;;;;;;;;4972256;28;20482;-62
2023/02/28 15:05:00;;;;;;;5.63;3.17;;;;;;;;;;4967579;28;20158;-65